Time;durP1;ratioP1;P1;durP2;ratioP2;P2;SDS_P1;SDS_P2;PMS_P1;PMS_P2;Temp;Humidity;BMP_temperature;BMP_pressure;BME280_temperature;BME280_humidity;BME280_pressure;Samples;Min_cycle;Max_cycle;Signal;HPM_P1;HPM_P2
2022/10/17 00:01:13;;;;;;;9.13;6.65;;;16.90;99.90;;;;;;5024449;28;20303;-78
2022/10/17 00:03:41;;;;;;;7.40;5.82;;;16.80;99.90;;;;;;5025376;28;20222;-78
2022/10/17 00:06:10;;;;;;;6.32;5.50;;;16.70;99.90;;;;;;5028123;28;20194;-78
2022/10/17 00:08:39;;;;;;;6.03;5.30;;;16.70;99.90;;;;;;5027698;28;20195;-78
2022/10/17 00:11:14;;;;;;;5.45;4.72;;;16.60;99.90;;;;;;5031662;28;20203;-78
2022/10/17 00:13:42;;;;;;;6.00;5.40;;;16.50;99.90;;;;;;5039933;28;20224;-78
2022/10/17 00:16:10;;;;;;;5.95;4.88;;;16.40;99.90;;;;;;5026593;28;20190;-78
2022/10/17 00:18:37;;;;;;;6.35;4.90;;;16.40;99.90;;;;;;5028708;28;20223;-78
2022/10/17 00:21:05;;;;;;;7.45;5.30;;;16.30;99.90;;;;;;5024569;28;20206;-78
2022/10/17 00:23:33;;;;;;;5.53;5.03;;;16.30;99.90;;;;;;5033155;28;20732;-78
2022/10/17 00:26:02;;;;;;;5.60;5.07;;;16.30;99.90;;;;;;5024737;28;20207;-78
2022/10/17 00:28:30;;;;;;;5.70;5.10;;;16.40;99.90;;;;;;5030183;28;20199;-78
2022/10/17 00:31:00;;;;;;;5.78;4.45;;;16.40;99.90;;;;;;5034082;28;20195;-78
2022/10/17 00:33:28;;;;;;;5.40;4.90;;;16.50;99.90;;;;;;5026455;28;20222;-78
2022/10/17 00:36:03;;;;;;;5.82;5.15;;;16.40;99.90;;;;;;5029810;28;20218;-78
2022/10/17 00:38:31;;;;;;;8.25;5.30;;;16.40;99.90;;;;;;5023012;28;20614;-78
2022/10/17 00:40:58;;;;;;;5.78;5.22;;;16.40;99.90;;;;;;5029805;28;20195;-78
2022/10/17 00:43:26;;;;;;;6.38;4.82;;;16.40;99.90;;;;;;5027008;28;20689;-78
2022/10/17 00:45:54;;;;;;;5.50;4.65;;;16.50;99.90;;;;;;5027222;28;20210;-78
2022/10/17 00:48:25;;;;;;;5.90;5.22;;;16.40;99.90;;;;;;5026309;28;20202;-78
2022/10/17 00:50:53;;;;;;;6.45;5.45;;;16.50;99.90;;;;;;5030140;28;20204;-78
2022/10/17 00:53:20;;;;;;;6.45;5.90;;;16.40;99.90;;;;;;5025703;28;20581;-78
2022/10/17 00:55:51;;;;;;;5.75;5.18;;;16.40;99.90;;;;;;5025127;28;20665;-78
2022/10/17 00:58:19;;;;;;;6.25;5.35;;;16.40;99.90;;;;;;5026442;28;20226;-78
2022/10/17 01:00:48;;;;;;;7.20;5.47;;;16.50;99.90;;;;;;5025347;28;20203;-78
2022/10/17 01:03:16;;;;;;;5.60;5.18;;;16.60;99.90;;;;;;5028530;28;20218;-78
2022/10/17 01:05:46;;;;;;;6.38;5.47;;;16.70;99.90;;;;;;5030304;28;20210;-78
2022/10/17 01:08:14;;;;;;;6.72;4.97;;;16.60;99.90;;;;;;5043038;28;20210;-78
2022/10/17 01:11:02;;;;;;;5.43;4.93;;;16.70;99.90;;;;;;5031611;28;20207;-78
2022/10/17 01:13:38;;;;;;;6.85;5.20;;;16.80;99.90;;;;;;5037763;28;20226;-78
2022/10/17 01:16:11;;;;;;;5.63;5.03;;;16.80;99.90;;;;;;5028996;28;20199;-78
2022/10/17 01:18:51;;;;;;;6.88;5.20;;;16.90;99.90;;;;;;5029532;28;20211;-78
2022/10/17 01:21:40;;;;;;;6.20;5.22;;;16.90;99.90;;;;;;5044926;28;20218;-78
2022/10/17 01:24:44;;;;;;;7.43;5.70;;;16.90;99.90;;;;;;5024238;28;20571;-78
2022/10/17 01:27:37;;;;;;;5.72;5.22;;;16.90;99.90;;;;;;5024723;28;20198;-78
2022/10/17 01:30:51;;;;;;;9.10;5.30;;;17.00;99.90;;;;;;4998608;28;20198;-78
2022/10/17 01:33:31;;;;;;;6.90;5.20;;;17.00;99.90;;;;;;5023993;28;20731;-78
2022/10/17 01:36:05;;;;;;;5.20;4.70;;;17.00;99.90;;;;;;5037747;28;20215;-78
2022/10/17 01:38:36;;;;;;;7.43;4.80;;;17.00;99.90;;;;;;5027194;28;20606;-78
2022/10/17 01:41:10;;;;;;;7.38;5.00;;;17.10;99.90;;;;;;5028543;28;20202;-78
2022/10/17 01:43:41;;;;;;;5.88;5.28;;;17.10;99.90;;;;;;5021708;28;20219;-78
2022/10/17 01:46:16;;;;;;;9.80;5.20;;;17.10;99.90;;;;;;5021239;28;20210;-78
2022/10/17 01:48:46;;;;;;;5.88;5.38;;;17.10;99.90;;;;;;5026992;28;20205;-78
2022/10/17 01:51:17;;;;;;;6.00;4.80;;;17.10;99.90;;;;;;5026892;28;20210;-78
2022/10/17 01:53:52;;;;;;;5.25;4.75;;;17.10;99.90;;;;;;5028078;28;20223;-78
2022/10/17 01:56:25;;;;;;;5.72;5.22;;;17.10;99.90;;;;;;5029691;28;20200;-78
2022/10/17 01:58:57;;;;;;;5.80;4.90;;;17.20;99.90;;;;;;5033242;28;20215;-78
2022/10/17 02:01:26;;;;;;;5.13;4.65;;;17.20;99.90;;;;;;5028445;28;20668;-78
2022/10/17 02:03:57;;;;;;;6.72;4.93;;;17.20;99.90;;;;;;5033423;28;20687;-78
2022/10/17 02:06:25;;;;;;;5.93;5.00;;;17.20;99.90;;;;;;5030377;28;20207;-78
2022/10/17 02:08:53;;;;;;;7.18;4.78;;;17.20;99.90;;;;;;5024187;28;20192;-78
2022/10/17 02:11:23;;;;;;;6.00;5.30;;;17.20;99.90;;;;;;5031664;28;20210;-78
2022/10/17 02:14:05;;;;;;;5.22;4.63;;;17.20;99.90;;;;;;5028621;28;20559;-78
2022/10/17 02:16:38;;;;;;;5.55;5.05;;;17.20;99.90;;;;;;5026869;28;20198;-78
2022/10/17 02:19:32;;;;;;;6.95;5.00;;;17.30;99.90;;;;;;5025160;28;20219;-78
2022/10/17 02:22:14;;;;;;;6.00;4.75;;;17.20;99.90;;;;;;5029144;28;20219;-78
2022/10/17 02:24:48;;;;;;;5.78;5.07;;;17.20;99.90;;;;;;5032317;28;20202;-78
2022/10/17 02:27:25;;;;;;;6.18;5.18;;;17.20;99.90;;;;;;5030915;28;20202;-78
2022/10/17 02:30:00;;;;;;;6.07;4.80;;;17.20;99.90;;;;;;5029295;28;20198;-78
2022/10/17 02:32:36;;;;;;;5.38;4.88;;;17.30;99.90;;;;;;5026501;28;20213;-77
2022/10/17 02:35:08;;;;;;;6.00;5.32;;;17.20;99.90;;;;;;5028543;28;20195;-77
2022/10/17 02:37:37;;;;;;;7.57;5.13;;;17.30;99.90;;;;;;5031006;28;20237;-77
2022/10/17 02:40:06;;;;;;;6.68;4.70;;;17.30;99.90;;;;;;5028859;28;20211;-78
2022/10/17 02:42:35;;;;;;;6.65;5.22;;;17.30;99.90;;;;;;5041973;28;20738;-77
2022/10/17 02:45:05;;;;;;;5.43;4.65;;;17.20;99.90;;;;;;5025682;28;20211;-77
2022/10/17 02:47:36;;;;;;;6.03;5.40;;;17.30;99.90;;;;;;5029978;28;20214;-77
2022/10/17 02:50:07;;;;;;;7.40;5.00;;;17.30;99.90;;;;;;5029947;28;20198;-77
2022/10/17 02:52:40;;;;;;;6.28;4.90;;;17.30;99.90;;;;;;5028242;28;20230;-77
2022/10/17 02:55:12;;;;;;;5.68;5.13;;;17.30;99.90;;;;;;5028641;28;20195;-77
2022/10/17 02:57:42;;;;;;;6.75;4.93;;;17.30;99.90;;;;;;5027596;28;20199;-78
2022/10/17 03:00:13;;;;;;;7.95;5.13;;;17.30;99.90;;;;;;5026612;28;20218;-78
2022/10/17 03:02:41;;;;;;;6.13;5.20;;;17.30;99.90;;;;;;5025905;28;20217;-78
2022/10/17 03:05:14;;;;;;;5.63;5.05;;;17.30;99.90;;;;;;5037085;28;20202;-77
2022/10/17 03:07:41;;;;;;;7.15;5.07;;;17.20;99.90;;;;;;5031337;28;20210;-77
2022/10/17 03:10:09;;;;;;;6.78;5.03;;;17.30;99.90;;;;;;5033297;28;20664;-77
2022/10/17 03:12:37;;;;;;;7.53;5.55;;;17.30;99.90;;;;;;5030643;28;20218;-77
2022/10/17 03:15:06;;;;;;;5.60;5.03;;;17.30;99.90;;;;;;5026734;28;20198;-77
2022/10/17 03:17:35;;;;;;;6.43;4.95;;;17.30;99.90;;;;;;5029450;28;20195;-77
2022/10/17 03:20:02;;;;;;;5.63;5.13;;;17.20;99.90;;;;;;5027105;28;20226;-78
2022/10/17 03:22:32;;;;;;;8.63;4.88;;;17.20;99.90;;;;;;5026950;28;20230;-78
2022/10/17 03:25:01;;;;;;;5.90;5.03;;;17.20;99.90;;;;;;5024449;28;20221;-78
2022/10/17 03:27:29;;;;;;;6.53;5.20;;;17.30;99.90;;;;;;5026397;28;20210;-78
2022/10/17 03:29:56;;;;;;;6.00;4.88;;;17.30;99.90;;;;;;5022942;28;20899;-78
2022/10/17 03:32:24;;;;;;;5.78;4.93;;;17.30;99.90;;;;;;5029699;28;20222;-78
2022/10/17 03:34:51;;;;;;;4.95;4.45;;;17.30;99.90;;;;;;5032822;28;20206;-78
2022/10/17 03:37:19;;;;;;;4.88;4.40;;;17.30;99.90;;;;;;5028813;28;20198;-78
2022/10/17 03:39:47;;;;;;;7.22;5.43;;;17.30;99.90;;;;;;5027720;28;20572;-78
2022/10/17 03:42:16;;;;;;;5.65;4.88;;;17.30;99.90;;;;;;5026721;28;20225;-77
2022/10/17 03:44:44;;;;;;;5.22;4.72;;;17.30;99.90;;;;;;5030920;28;20198;-77
2022/10/17 03:47:12;;;;;;;5.25;4.35;;;17.40;99.90;;;;;;5028698;28;20695;-77
2022/10/17 03:49:40;;;;;;;6.07;5.20;;;17.40;99.90;;;;;;5026412;28;20191;-77
2022/10/17 03:52:12;;;;;;;6.20;4.78;;;17.40;99.90;;;;;;5026631;28;20663;-78
2022/10/17 03:54:39;;;;;;;8.55;5.03;;;17.40;99.90;;;;;;5027180;28;20194;-77
2022/10/17 03:57:08;;;;;;;5.32;4.47;;;17.40;99.90;;;;;;5027437;28;20199;-77
2022/10/17 03:59:36;;;;;;;6.70;5.00;;;17.40;99.90;;;;;;5037555;28;20230;-77
2022/10/17 04:02:09;;;;;;;6.68;5.00;;;17.40;99.90;;;;;;5026336;28;20711;-77
2022/10/17 04:04:37;;;;;;;5.55;4.68;;;17.50;99.90;;;;;;5030121;28;20206;-77
2022/10/17 04:07:04;;;;;;;6.57;5.18;;;17.40;99.90;;;;;;5030587;28;20203;-77
2022/10/17 04:09:34;;;;;;;7.35;4.45;;;17.40;99.90;;;;;;5029535;28;20552;-78
2022/10/17 04:12:09;;;;;;;5.80;4.68;;;17.50;99.90;;;;;;5028471;28;20223;-78
2022/10/17 04:14:38;;;;;;;6.70;4.65;;;17.50;99.90;;;;;;5028164;28;20194;-78
2022/10/17 04:17:05;;;;;;;8.45;5.35;;;17.40;99.90;;;;;;5028262;28;20210;-78
2022/10/17 04:19:34;;;;;;;6.65;5.10;;;17.50;99.90;;;;;;5027859;28;20206;-78
2022/10/17 04:22:02;;;;;;;9.82;4.88;;;17.40;99.90;;;;;;5030627;28;20684;-77
2022/10/17 04:24:35;;;;;;;6.43;4.35;;;17.40;99.90;;;;;;5026528;28;20202;-77
2022/10/17 04:27:10;;;;;;;5.30;4.63;;;17.50;99.90;;;;;;5044916;28;20195;-79
2022/10/17 04:29:42;;;;;;;5.75;4.15;;;17.40;99.90;;;;;;5026644;28;20589;-77
2022/10/17 04:32:17;;;;;;;5.22;4.68;;;17.50;99.90;;;;;;5026481;28;20665;-77
2022/10/17 04:34:49;;;;;;;6.28;4.95;;;17.50;99.90;;;;;;5027766;28;20202;-78
2022/10/17 04:37:18;;;;;;;6.43;5.25;;;17.50;99.90;;;;;;5027973;28;20202;-77
2022/10/17 04:39:47;;;;;;;4.82;4.32;;;17.50;99.90;;;;;;5028800;28;20214;-77
2022/10/17 04:42:16;;;;;;;5.53;4.70;;;17.50;99.90;;;;;;5026380;28;20222;-77
2022/10/17 04:44:43;;;;;;;5.68;4.63;;;17.50;99.90;;;;;;5028098;28;20203;-77
2022/10/17 04:47:11;;;;;;;5.07;4.03;;;17.50;99.90;;;;;;5025141;28;20206;-77
2022/10/17 04:49:39;;;;;;;6.72;4.82;;;17.40;99.90;;;;;;5028533;28;20214;-77
2022/10/17 04:52:10;;;;;;;6.43;4.78;;;17.50;99.90;;;;;;5026001;28;20227;-78
2022/10/17 04:54:45;;;;;;;5.25;4.80;;;17.50;99.90;;;;;;5026235;28;20207;-78
2022/10/17 04:57:15;;;;;;;8.27;4.68;;;17.40;99.90;;;;;;5023918;28;20199;-78
2022/10/17 04:59:50;;;;;;;5.35;4.80;;;17.50;99.90;;;;;;5019095;28;20207;-77
2022/10/17 05:02:26;;;;;;;5.32;4.82;;;17.50;99.90;;;;;;5028099;28;20223;-78
2022/10/17 05:04:54;;;;;;;6.75;4.50;;;17.50;99.90;;;;;;5025884;28;20199;-77
2022/10/17 05:07:22;;;;;;;6.05;4.18;;;17.50;99.90;;;;;;5027081;28;20211;-78
2022/10/17 05:10:00;;;;;;;6.20;4.85;;;17.50;99.90;;;;;;5027313;28;20202;-78
2022/10/17 05:12:29;;;;;;;5.22;4.78;;;17.50;99.90;;;;;;5022227;28;20234;-78
2022/10/17 05:14:56;;;;;;;6.97;4.68;;;17.60;99.90;;;;;;5021795;28;20199;-77
2022/10/17 05:17:26;;;;;;;5.25;4.40;;;17.60;99.90;;;;;;5023625;28;20218;-77
2022/10/17 05:19:54;;;;;;;6.38;4.30;;;17.60;99.90;;;;;;5022379;28;20195;-79
2022/10/17 05:22:21;;;;;;;7.72;4.68;;;17.60;99.90;;;;;;5027541;28;20234;-79
2022/10/17 05:25:13;;;;;;;5.93;5.00;;;17.60;99.90;;;;;;5026192;28;20198;-78
2022/10/17 05:27:42;;;;;;;4.68;3.85;;;17.60;99.90;;;;;;5019851;28;20198;-79
2022/10/17 05:30:10;;;;;;;6.32;4.40;;;17.60;99.90;;;;;;5026477;28;20199;-77
2022/10/17 05:32:40;;;;;;;6.70;4.30;;;17.60;99.90;;;;;;5025746;28;20218;-78
2022/10/17 05:35:10;;;;;;;5.85;4.32;;;17.70;99.90;;;;;;5029921;28;20198;-78
2022/10/17 05:37:39;;;;;;;10.07;4.82;;;17.70;99.90;;;;;;5030214;28;20685;-78
2022/10/17 05:40:26;;;;;;;6.45;4.53;;;17.60;99.90;;;;;;5028442;28;20210;-78
2022/10/17 05:43:08;;;;;;;5.68;4.32;;;17.70;99.90;;;;;;5032271;28;20230;-78
2022/10/17 05:45:38;;;;;;;7.80;4.53;;;17.70;99.90;;;;;;5024459;28;20199;-78
2022/10/17 05:48:08;;;;;;;7.38;4.72;;;17.70;99.90;;;;;;5026816;28;20195;-78
2022/10/17 05:50:36;;;;;;;5.47;4.43;;;17.70;99.90;;;;;;5029388;28;20198;-78
2022/10/17 05:53:14;;;;;;;5.30;4.30;;;17.70;99.90;;;;;;5023500;28;20230;-78
2022/10/17 05:55:54;;;;;;;4.45;4.05;;;17.70;99.90;;;;;;5030326;28;20206;-78
2022/10/17 05:58:24;;;;;;;4.72;4.22;;;17.70;99.90;;;;;;5029961;28;20588;-78
2022/10/17 06:01:21;;;;;;;5.20;4.70;;;17.70;99.90;;;;;;5028177;28;20205;-77
2022/10/17 06:03:48;;;;;;;5.97;4.45;;;17.70;99.90;;;;;;5017023;28;20599;-78
2022/10/17 06:06:17;;;;;;;6.18;4.20;;;17.70;99.90;;;;;;5019628;28;20212;-78
2022/10/17 06:08:46;;;;;;;6.53;4.63;;;17.70;99.90;;;;;;5040287;28;20566;-78
2022/10/17 06:11:20;;;;;;;5.63;4.43;;;17.70;99.90;;;;;;5026056;28;20199;-78
2022/10/17 06:13:50;;;;;;;6.68;4.60;;;17.70;99.90;;;;;;5029563;28;20230;-78
2022/10/17 06:16:23;;;;;;;8.30;4.90;;;17.80;99.90;;;;;;5022714;28;20194;-78
2022/10/17 06:18:50;;;;;;;6.07;4.10;;;18.10;99.90;;;;;;5027820;28;20195;-78
2022/10/17 06:21:21;;;;;;;7.50;4.32;;;18.20;99.90;;;;;;5026593;28;20214;-80
2022/10/17 06:23:51;;;;;;;4.97;4.47;;;18.30;99.90;;;;;;5022973;28;20727;-77
2022/10/17 06:26:38;;;;;;;6.28;4.60;;;18.20;99.90;;;;;;5027326;28;20195;-76
2022/10/17 06:29:09;;;;;;;4.95;3.92;;;18.00;99.90;;;;;;5026104;28;20203;-77
2022/10/17 06:31:43;;;;;;;5.10;4.28;;;17.90;99.90;;;;;;5026272;28;20199;-77
2022/10/17 06:34:10;;;;;;;5.20;4.38;;;17.90;99.90;;;;;;5028916;28;20199;-77
2022/10/17 06:36:39;;;;;;;6.75;4.45;;;17.90;99.90;;;;;;5036073;28;20194;-77
2022/10/17 06:39:08;;;;;;;4.82;4.43;;;17.80;99.90;;;;;;5028182;28;20199;-77
2022/10/17 06:41:43;;;;;;;7.05;4.20;;;17.90;99.90;;;;;;5028279;28;20270;-77
2022/10/17 06:44:12;;;;;;;6.82;4.40;;;17.80;99.90;;;;;;5024540;28;20183;-77
2022/10/17 06:46:52;;;;;;;4.80;4.35;;;17.90;99.90;;;;;;5035413;28;20199;-77
2022/10/17 06:49:19;;;;;;;4.35;3.88;;;17.80;99.90;;;;;;5034283;28;20199;-78
2022/10/17 06:51:52;;;;;;;6.93;4.60;;;17.90;99.90;;;;;;5030709;28;20235;-77
2022/10/17 06:54:24;;;;;;;5.40;4.68;;;17.90;99.90;;;;;;5031797;28;20209;-77
2022/10/17 06:57:18;;;;;;;6.25;4.63;;;17.90;99.90;;;;;;5032366;28;20195;-77
2022/10/17 06:59:54;;;;;;;6.50;4.45;;;18.00;99.90;;;;;;5031741;28;20195;-77
2022/10/17 07:02:30;;;;;;;6.57;4.30;;;17.90;99.90;;;;;;5033562;28;20223;-77
2022/10/17 07:05:00;;;;;;;8.13;4.38;;;18.00;99.90;;;;;;5032769;28;20199;-77
2022/10/17 07:07:30;;;;;;;6.43;4.18;;;18.00;99.90;;;;;;5030856;28;20567;-77
2022/10/17 07:09:58;;;;;;;7.00;4.65;;;18.00;99.90;;;;;;5034881;28;20202;-77
2022/10/17 07:12:26;;;;;;;5.35;4.32;;;18.00;99.90;;;;;;5031879;28;20219;-77
2022/10/17 07:14:54;;;;;;;4.50;3.95;;;18.10;99.90;;;;;;5033041;28;20209;-77
2022/10/17 07:17:22;;;;;;;6.85;4.28;;;18.10;99.90;;;;;;5032986;28;20199;-77
2022/10/17 07:19:50;;;;;;;5.35;4.10;;;18.10;99.90;;;;;;5031491;28;20214;-77
2022/10/17 07:22:18;;;;;;;5.22;3.97;;;18.10;99.90;;;;;;5033018;28;20229;-77
2022/10/17 07:24:48;;;;;;;5.25;3.97;;;18.10;99.90;;;;;;5033451;28;20227;-77
2022/10/17 07:27:21;;;;;;;5.65;4.50;;;18.20;99.90;;;;;;5029036;28;20195;-77
2022/10/17 07:29:48;;;;;;;7.30;4.47;;;18.20;99.90;;;;;;5031884;28;20198;-77
2022/10/17 07:32:23;;;;;;;7.93;4.10;;;18.30;99.90;;;;;;5027860;28;20214;-77
2022/10/17 07:34:50;;;;;;;4.82;3.75;;;18.30;99.90;;;;;;5023912;28;20208;-77
2022/10/17 07:37:18;;;;;;;6.35;4.65;;;18.40;99.90;;;;;;5036871;28;20203;-77
2022/10/17 07:39:52;;;;;;;7.60;4.55;;;18.40;99.90;;;;;;5031020;28;20214;-78
2022/10/17 07:42:20;;;;;;;6.60;4.18;;;18.50;99.90;;;;;;5025899;28;20583;-77
2022/10/17 07:44:47;;;;;;;7.30;5.32;;;18.50;99.90;;;;;;5026745;28;20199;-78
2022/10/17 07:47:16;;;;;;;12.98;6.38;;;18.60;99.90;;;;;;5028908;28;20199;-78
2022/10/17 07:49:46;;;;;;;6.63;4.60;;;18.60;99.90;;;;;;5029751;28;20202;-77
2022/10/17 07:52:15;;;;;;;7.53;4.93;;;18.70;99.90;;;;;;5024972;28;20238;-78
2022/10/17 07:54:43;;;;;;;5.25;4.38;;;18.70;99.90;;;;;;5026288;28;20203;-77
2022/10/17 07:57:10;;;;;;;5.22;4.00;;;18.80;99.90;;;;;;5027877;28;20203;-78
2022/10/17 07:59:43;;;;;;;4.65;4.00;;;18.70;99.90;;;;;;5027387;28;20195;-77
2022/10/17 08:02:18;;;;;;;7.68;4.60;;;18.80;99.90;;;;;;5026121;28;20215;-78
2022/10/17 08:04:47;;;;;;;8.35;4.13;;;18.70;99.90;;;;;;5026741;28;20198;-77
2022/10/17 08:07:15;;;;;;;6.35;4.13;;;18.70;99.90;;;;;;5022085;28;20207;-78
2022/10/17 08:09:42;;;;;;;6.50;4.32;;;18.80;99.90;;;;;;5028955;28;20649;-78
2022/10/17 08:12:10;;;;;;;6.53;4.32;;;18.70;99.90;;;;;;5029363;28;20211;-78
2022/10/17 08:14:40;;;;;;;8.35;4.80;;;18.80;99.90;;;;;;5027137;28;20203;-78
2022/10/17 08:17:08;;;;;;;6.10;4.40;;;18.80;99.90;;;;;;5024970;28;20199;-79
2022/10/17 08:19:38;;;;;;;7.65;4.43;;;18.90;99.90;;;;;;5024528;28;20199;-80
2022/10/17 08:22:08;;;;;;;7.88;4.55;;;18.90;99.90;;;;;;5031488;28;20238;-78
2022/10/17 08:24:35;;;;;;;5.22;4.20;;;19.00;99.90;;;;;;5029387;28;20226;-78
2022/10/17 08:27:10;;;;;;;7.72;4.50;;;19.00;99.90;;;;;;5028287;28;20206;-78
2022/10/17 08:29:37;;;;;;;5.40;3.80;;;19.10;99.90;;;;;;5021994;28;20205;-78
2022/10/17 08:32:05;;;;;;;6.43;3.88;;;19.10;99.90;;;;;;5029273;28;20759;-78
2022/10/17 08:34:32;;;;;;;4.97;3.75;;;19.10;99.90;;;;;;5028859;28;20206;-78
2022/10/17 08:37:00;;;;;;;4.10;3.55;;;19.10;99.90;;;;;;5030889;28;20210;-78
2022/10/17 08:39:29;;;;;;;6.70;4.40;;;19.20;99.90;;;;;;5028050;28;20210;-78
2022/10/17 08:42:09;;;;;;;5.03;4.10;;;19.20;99.90;;;;;;5031355;28;20219;-78
2022/10/17 08:44:49;;;;;;;9.40;3.92;;;19.30;99.90;;;;;;5030607;28;20213;-78
2022/10/17 08:47:23;;;;;;;5.57;4.00;;;19.40;99.90;;;;;;5022000;28;20210;-78
2022/10/17 08:49:54;;;;;;;5.88;4.15;;;19.50;99.90;;;;;;5046119;28;20214;-78
2022/10/17 08:52:29;;;;;;;5.40;3.95;;;19.50;99.90;;;;;;5031599;28;20222;-78
2022/10/17 08:54:58;;;;;;;8.82;3.58;;;19.60;99.90;;;;;;5040028;28;20205;-79
2022/10/17 08:57:27;;;;;;;7.00;3.85;;;19.70;99.90;;;;;;5028270;28;20661;-79
2022/10/17 08:59:55;;;;;;;6.38;3.88;;;19.70;99.90;;;;;;5031026;28;20210;-78
2022/10/17 09:02:49;;;;;;;6.25;4.00;;;19.90;99.90;;;;;;5030390;28;20230;-78
2022/10/17 09:05:37;;;;;;;4.72;3.65;;;19.90;99.90;;;;;;5026397;28;20207;-78
2022/10/17 09:08:14;;;;;;;4.93;3.78;;;20.00;99.90;;;;;;5023482;28;20195;-78
2022/10/17 09:10:52;;;;;;;6.38;4.13;;;20.00;99.90;;;;;;5024673;28;20209;-79
2022/10/17 09:13:31;;;;;;;4.53;3.97;;;20.00;99.90;;;;;;5029101;28;20213;-77
2022/10/17 09:16:10;;;;;;;6.15;4.15;;;20.10;99.90;;;;;;5032535;28;20205;-78
2022/10/17 09:18:40;;;;;;;5.45;3.53;;;20.20;99.90;;;;;;5043758;28;20206;-78
2022/10/17 09:21:18;;;;;;;4.93;4.22;;;20.20;99.90;;;;;;5028551;28;20547;-78
2022/10/17 09:23:50;;;;;;;4.45;4.03;;;20.10;99.90;;;;;;5024471;28;20218;-78
2022/10/17 09:26:21;;;;;;;7.38;3.75;;;20.10;99.90;;;;;;5028697;28;20687;-78
2022/10/17 09:28:54;;;;;;;5.40;3.88;;;20.20;99.90;;;;;;5029107;28;20218;-78
2022/10/17 09:31:25;;;;;;;4.57;3.65;;;20.10;99.90;;;;;;5028420;28;20200;-78
2022/10/17 09:34:03;;;;;;;5.43;3.70;;;20.10;99.90;;;;;;5019295;28;20187;-77
2022/10/17 09:36:33;;;;;;;3.90;3.60;;;20.10;99.90;;;;;;5044971;28;20206;-77
2022/10/17 09:39:05;;;;;;;6.45;3.72;;;20.20;99.90;;;;;;5022988;28;20203;-78
2022/10/17 09:41:37;;;;;;;5.22;3.67;;;20.20;99.90;;;;;;5025978;28;20199;-78
2022/10/17 09:44:30;;;;;;;5.57;4.25;;;20.30;99.90;;;;;;5023693;28;20223;-78
2022/10/17 09:47:26;;;;;;;6.15;3.92;;;20.50;99.90;;;;;;5025118;28;20195;-77
2022/10/17 09:49:54;;;;;;;5.70;3.45;;;20.60;99.90;;;;;;5027634;28;20664;-77
2022/10/17 09:52:38;;;;;;;6.95;3.67;;;20.60;99.90;;;;;;5024463;28;20230;-78
2022/10/17 09:55:15;;;;;;;4.03;3.65;;;20.70;99.90;;;;;;5025134;28;20195;-77
2022/10/17 09:57:55;;;;;;;5.22;3.55;;;20.60;99.90;;;;;;5024309;28;20190;-77
2022/10/17 10:00:24;;;;;;;4.20;3.67;;;20.50;99.90;;;;;;5022203;28;20202;-78
2022/10/17 10:03:07;;;;;;;5.90;3.88;;;20.50;99.90;;;;;;5023470;28;20227;-78
2022/10/17 10:05:35;;;;;;;6.22;3.97;;;20.50;99.90;;;;;;5022510;28;20206;-77
2022/10/17 10:08:04;;;;;;;17.85;13.13;;;20.40;99.90;;;;;;5025998;28;20225;-76
2022/10/17 10:10:32;;;;;;;17.50;10.85;;;20.40;99.90;;;;;;5025012;28;20195;-77
2022/10/17 10:13:20;;;;;;;4.88;3.65;;;20.40;99.90;;;;;;5023152;28;20215;-77
2022/10/17 10:15:48;;;;;;;5.85;4.13;;;20.40;99.90;;;;;;5021912;28;20199;-78
2022/10/17 10:18:34;;;;;;;4.55;3.75;;;20.40;99.90;;;;;;5026588;28;20210;-77
2022/10/17 10:21:08;;;;;;;5.03;3.97;;;20.40;99.90;;;;;;5029067;28;20202;-77
2022/10/17 10:23:38;;;;;;;5.95;3.50;;;20.40;99.90;;;;;;5026885;28;20233;-77
2022/10/17 10:26:21;;;;;;;4.00;3.58;;;20.50;99.90;;;;;;5026625;28;20194;-77
2022/10/17 10:29:01;;;;;;;3.88;3.50;;;20.40;99.90;;;;;;5037331;28;20199;-77
2022/10/17 10:31:33;;;;;;;6.45;3.90;;;20.40;99.90;;;;;;5015513;28;20206;-78
2022/10/17 10:34:20;;;;;;;6.38;4.13;;;20.40;99.90;;;;;;5027516;28;20198;-78
2022/10/17 10:36:59;;;;;;;6.07;3.85;;;20.40;99.90;;;;;;5041097;28;20230;-77
2022/10/17 10:39:48;;;;;;;6.72;4.15;;;20.40;99.90;;;;;;5031871;28;20202;-77
2022/10/17 10:42:24;;;;;;;5.80;3.78;;;20.40;99.90;;;;;;5023960;28;20218;-77
2022/10/17 10:45:18;;;;;;;4.80;3.70;;;20.30;99.90;;;;;;5045027;28;20205;-77
2022/10/17 10:47:53;;;;;;;6.63;3.78;;;20.30;99.90;;;;;;5031273;23;20216;-75
2022/10/17 10:50:30;;;;;;;6.78;3.83;;;20.30;99.90;;;;;;4993102;28;20204;-75
2022/10/17 10:53:14;;;;;;;5.50;4.10;;;20.30;99.90;;;;;;5013858;28;20200;-75
2022/10/17 10:55:48;;;;;;;6.45;4.20;;;20.40;99.90;;;;;;5010199;28;20211;-75
2022/10/17 10:58:33;;;;;;;5.35;3.20;;;20.40;99.90;;;;;;5011917;28;20231;-75
2022/10/17 11:01:05;;;;;;;8.73;3.90;;;20.40;99.90;;;;;;4991470;28;20204;-76
2022/10/17 11:03:39;;;;;;;5.88;4.03;;;20.50;99.90;;;;;;4994550;28;20224;-75
2022/10/17 11:06:14;;;;;;;5.07;3.83;;;20.50;99.90;;;;;;4999748;28;20196;-75
2022/10/17 11:08:47;;;;;;;5.82;4.22;;;20.50;99.90;;;;;;4992961;28;20693;-75
2022/10/17 11:11:22;;;;;;;6.82;5.00;;;20.60;99.90;;;;;;5011251;28;20211;-75
2022/10/17 11:14:11;;;;;;;7.05;4.03;;;20.60;99.90;;;;;;5015995;28;20200;-75
2022/10/17 11:16:47;;;;;;;4.95;4.13;;;20.60;99.90;;;;;;4989090;28;20192;-75
2022/10/17 11:19:24;;;;;;;5.80;4.32;;;20.50;99.90;;;;;;4998052;28;20196;-75
2022/10/17 11:22:05;;;;;;;5.03;4.28;;;20.50;99.90;;;;;;5000120;28;20204;-75
2022/10/17 11:24:37;;;;;;;6.72;3.90;;;20.50;99.90;;;;;;4989228;28;20255;-75
2022/10/17 11:27:06;;;;;;;10.05;4.30;;;20.50;99.90;;;;;;4986632;28;20232;-75
2022/10/17 11:29:37;;;;;;;4.38;3.85;;;20.50;99.90;;;;;;4989909;28;20224;-75
2022/10/17 11:32:09;;;;;;;8.43;3.80;;;20.40;99.90;;;;;;4993221;28;20200;-75
2022/10/17 11:34:41;;;;;;;6.78;4.07;;;20.40;99.90;;;;;;5001617;28;20196;-75
2022/10/17 11:37:17;;;;;;;6.95;4.05;;;20.40;99.90;;;;;;4983222;28;20917;-75
2022/10/17 11:39:52;;;;;;;6.15;3.97;;;20.50;99.90;;;;;;4990393;28;20192;-75
2022/10/17 11:42:25;;;;;;;8.07;4.40;;;20.40;99.90;;;;;;4992344;28;20197;-75
2022/10/17 11:45:05;;;;;;;5.07;3.92;;;20.50;99.90;;;;;;5004399;28;20219;-75
2022/10/17 11:47:46;;;;;;;6.93;4.28;;;20.50;99.90;;;;;;5006841;28;20235;-75
2022/10/17 11:50:23;;;;;;;5.72;3.80;;;20.50;99.90;;;;;;5007034;28;20201;-75
2022/10/17 11:52:56;;;;;;;4.22;3.65;;;20.40;99.90;;;;;;5010627;28;20218;-75
2022/10/17 11:55:25;;;;;;;5.15;4.00;;;20.40;99.90;;;;;;4995077;28;20207;-75
2022/10/17 11:58:09;;;;;;;7.93;4.15;;;20.40;99.90;;;;;;4994266;28;20213;-75
2022/10/17 12:00:50;;;;;;;5.90;3.58;;;20.40;99.90;;;;;;4990448;28;20203;-75
2022/10/17 12:03:40;;;;;;;4.32;3.53;;;20.50;99.90;;;;;;4999487;28;20215;-75
2022/10/17 12:06:15;;;;;;;5.13;3.75;;;20.60;99.90;;;;;;5000195;28;20669;-75
2022/10/17 12:08:49;;;;;;;6.70;3.83;;;20.60;99.90;;;;;;5017541;28;20226;-75
2022/10/17 12:11:33;;;;;;;4.38;3.80;;;20.60;99.90;;;;;;4995653;28;20196;-75
2022/10/17 12:14:01;;;;;;;5.63;4.05;;;20.60;99.90;;;;;;4986162;28;20197;-75
2022/10/17 12:16:44;;;;;;;5.15;4.18;;;20.60;99.90;;;;;;4997165;28;20199;-77
2022/10/17 12:19:42;;;;;;;4.43;3.83;;;20.50;99.90;;;;;;4994738;28;21024;-77
2022/10/17 12:22:50;;;;;;;5.90;4.30;;;20.50;99.90;;;;;;4986270;28;20277;-77
2022/10/17 12:25:20;;;;;;;4.43;3.90;;;20.50;99.90;;;;;;4990608;28;20205;-75
2022/10/17 12:27:49;;;;;;;7.32;3.88;;;20.50;99.90;;;;;;5005858;28;20300;-75
2022/10/17 12:30:25;;;;;;;5.53;4.47;;;20.50;99.90;;;;;;4996870;28;20236;-77
2022/10/17 12:33:04;;;;;;;4.68;4.20;;;20.50;99.90;;;;;;4999649;28;20216;-77
2022/10/17 12:35:35;;;;;;;5.53;3.83;;;20.50;99.90;;;;;;5001868;28;20202;-78
2022/10/17 12:38:25;;;;;;;8.25;4.20;;;20.50;99.90;;;;;;5002344;28;20235;-77
2022/10/17 12:41:00;;;;;;;8.68;4.38;;;20.50;99.90;;;;;;4990929;28;20205;-77
2022/10/17 12:43:55;;;;;;;7.70;4.70;;;20.50;99.90;;;;;;5001928;28;20207;-74
2022/10/17 12:46:47;;;;;;;6.22;4.18;;;20.40;99.90;;;;;;5015822;28;20673;-74
2022/10/17 12:49:40;;;;;;;5.45;3.78;;;20.30;99.90;;;;;;4989084;28;20192;-75
2022/10/17 12:52:48;;;;;;;5.00;4.50;;;20.40;99.90;;;;;;4992831;28;20208;-75
2022/10/17 12:55:28;;;;;;;7.68;3.90;;;20.30;99.90;;;;;;4986684;28;20197;-77
2022/10/17 12:58:08;;;;;;;4.57;4.10;;;20.30;99.90;;;;;;4991968;28;20720;-76
2022/10/17 13:00:42;;;;;;;7.57;4.53;;;20.30;99.90;;;;;;4983459;28;20203;-75
2022/10/17 13:03:19;;;;;;;5.97;4.10;;;20.30;99.90;;;;;;4992500;28;20187;-77
2022/10/17 13:05:51;;;;;;;7.22;4.30;;;20.20;99.90;;;;;;5004188;28;20219;-76
2022/10/17 13:08:26;;;;;;;6.55;4.55;;;20.20;99.90;;;;;;4992728;28;20228;-75
2022/10/17 13:10:57;;;;;;;8.35;4.80;;;20.20;99.90;;;;;;4989522;28;20661;-76
2022/10/17 13:13:37;;;;;;;7.32;4.55;;;20.20;99.90;;;;;;5003901;28;20211;-74
2022/10/17 13:16:05;;;;;;;5.18;4.43;;;20.30;99.90;;;;;;5001843;28;20192;-74
2022/10/17 13:18:35;;;;;;;9.05;5.13;;;20.20;99.90;;;;;;4988846;28;20224;-74